Time;durP1;ratioP1;P1;durP2;ratioP2;P2;SDS_P1;SDS_P2;PMS_P1;PMS_P2;Temp;Humidity;BMP_temperature;BMP_pressure;BME280_temperature;BME280_humidity;BME280_pressure;Samples;Min_cycle;Max_cycle;Signal;HPM_P1;HPM_P2
2023/07/08 00:00:29;;;;;;;7.38;3.50;;;;;;;25.97;40.25;100753.47;5092850;28;20093;-66
2023/07/08 00:02:57;;;;;;;6.70;3.70;;;;;;;25.97;40.17;100753.47;5092359;28;20055;-65
2023/07/08 00:05:26;;;;;;;7.13;3.50;;;;;;;25.91;40.65;100748.69;5092527;28;20060;-65
2023/07/08 00:07:55;;;;;;;7.75;3.60;;;;;;;25.90;41.16;100747.84;5092349;28;20438;-66
2023/07/08 00:10:26;;;;;;;7.38;3.80;;;;;;;25.90;41.19;100755.22;5092441;28;20113;-66
2023/07/08 00:12:57;;;;;;;7.13;3.58;;;;;;;25.88;41.42;100760.00;5092198;28;20132;-66
2023/07/08 00:15:28;;;;;;;7.82;4.00;;;;;;;25.86;41.74;100757.44;5092464;28;20105;-65
2023/07/08 00:17:56;;;;;;;6.45;3.25;;;;;;;25.82;41.78;100755.25;5092099;28;20051;-65
2023/07/08 00:20:32;;;;;;;7.60;3.70;;;;;;;25.82;41.89;100755.25;5092396;28;20571;-65
2023/07/08 00:23:01;;;;;;;6.82;3.88;;;;;;;25.81;42.55;100759.00;5092142;28;20094;-65
2023/07/08 00:25:29;;;;;;;6.72;3.90;;;;;;;25.77;42.76;100758.53;5092177;28;20459;-65
2023/07/08 00:27:59;;;;;;;6.45;3.53;;;;;;;25.73;42.60;100762.63;5092185;28;20056;-65
2023/07/08 00:30:32;;;;;;;6.88;3.75;;;;;;;25.73;42.93;100750.84;5092266;28;20424;-65
2023/07/08 00:33:01;;;;;;;6.43;4.22;;;;;;;25.69;42.45;100753.91;5091851;28;20048;-66
2023/07/08 00:35:33;;;;;;;10.73;4.10;;;;;;;25.69;43.00;100753.91;5091790;28;20044;-65
2023/07/08 00:38:02;;;;;;;8.20;3.80;;;;;;;25.66;42.99;100743.31;5091717;28;20158;-65
2023/07/08 00:40:32;;;;;;;7.70;4.00;;;;;;;25.66;43.17;100751.53;5091840;28;20101;-66
2023/07/08 00:43:06;;;;;;;8.52;4.30;;;;;;;25.61;43.47;100745.75;5092201;28;20055;-66
2023/07/08 00:45:42;;;;;;;7.03;4.45;;;;;;;25.61;43.22;100747.63;5091813;28;20443;-65
2023/07/08 00:48:32;;;;;;;6.13;3.97;;;;;;;25.57;43.67;100741.66;5091759;28;20143;-65
2023/07/08 00:51:01;;;;;;;9.02;4.00;;;;;;;25.56;43.81;100750.03;5091742;28;20229;-65
2023/07/08 00:53:33;;;;;;;7.53;4.28;;;;;;;25.51;43.74;100750.59;5091641;28;20139;-65
2023/07/08 00:56:05;;;;;;;8.23;4.17;;;;;;;25.48;44.54;100744.59;5091772;28;20044;-65
2023/07/08 00:58:38;;;;;;;7.00;3.83;;;;;;;25.46;44.16;100749.41;5091687;28;20810;-65
2023/07/08 01:01:08;;;;;;;6.82;4.10;;;;;;;25.45;44.36;100742.25;5090988;28;20113;-65
2023/07/08 01:03:44;;;;;;;10.10;4.32;;;;;;;25.44;44.76;100746.84;5091713;28;20044;-66
2023/07/08 01:06:13;;;;;;;5.88;3.60;;;;;;;25.41;44.79;100741.75;5091675;28;20405;-65
2023/07/08 01:08:41;;;;;;;10.02;4.47;;;;;;;25.42;44.51;100748.06;5091228;28;20052;-65
2023/07/08 01:11:09;;;;;;;8.20;3.70;;;;;;;25.41;44.60;100744.47;5091335;28;20040;-65
2023/07/08 01:13:44;;;;;;;8.23;4.22;;;;;;;25.39;44.72;100741.94;5091473;28;20131;-65
2023/07/08 01:16:15;;;;;;;7.70;4.00;;;;;;;25.39;44.78;100749.28;5091481;28;20052;-66
2023/07/08 01:18:52;;;;;;;7.65;4.43;;;;;;;25.37;44.74;100751.31;5091635;28;20121;-65
2023/07/08 01:21:33;;;;;;;7.75;4.20;;;;;;;25.34;44.83;100741.59;5091365;28;20062;-66
2023/07/08 01:24:05;;;;;;;6.65;3.90;;;;;;;25.33;44.92;100749.97;5091365;28;20066;-66
2023/07/08 01:26:38;;;;;;;7.50;3.75;;;;;;;25.31;44.85;100744.69;5091332;28;20056;-66
2023/07/08 01:29:07;;;;;;;7.13;3.38;;;;;;;25.31;44.69;100746.56;5091427;28;20474;-65
2023/07/08 01:31:36;;;;;;;7.10;3.65;;;;;;;25.28;45.02;100735.97;5091131;28;20055;-66
2023/07/08 01:34:05;;;;;;;5.57;3.75;;;;;;;25.27;44.95;100751.50;5091239;28;20047;-65
2023/07/08 01:36:45;;;;;;;7.25;4.10;;;;;;;25.28;45.06;100755.09;5090999;28;20048;-65
2023/07/08 01:39:19;;;;;;;5.93;3.65;;;;;;;25.24;45.20;100751.88;5091237;28;20063;-65
2023/07/08 01:41:47;;;;;;;5.78;3.60;;;;;;;25.22;45.41;100748.47;5091234;28;20249;-65
2023/07/08 01:44:23;;;;;;;7.07;3.58;;;;;;;25.22;45.33;100744.88;5091245;28;20063;-65
2023/07/08 01:46:54;;;;;;;8.00;3.67;;;;;;;25.20;45.38;100738.75;5090928;28;20510;-65
2023/07/08 01:49:23;;;;;;;7.00;3.90;;;;;;;25.19;45.44;100737.03;5073456;28;20044;-65
2023/07/08 01:51:51;;;;;;;6.78;3.72;;;;;;;25.19;45.42;100739.75;5091106;28;20123;-64
2023/07/08 01:54:21;;;;;;;6.78;4.00;;;;;;;25.17;45.62;100744.56;5091054;28;20044;-65
2023/07/08 01:56:56;;;;;;;6.03;3.67;;;;;;;25.16;45.46;100737.38;5090926;28;20048;-65
2023/07/08 01:59:25;;;;;;;6.72;3.40;;;;;;;25.14;45.85;100734.00;5090780;28;20119;-64
2023/07/08 02:01:55;;;;;;;8.40;3.90;;;;;;;25.14;45.80;100742.19;5091133;28;20052;-64
2023/07/08 02:04:25;;;;;;;5.43;3.50;;;;;;;25.11;45.59;100730.59;5091017;28;20075;-66
2023/07/08 02:06:54;;;;;;;5.75;3.67;;;;;;;25.09;45.93;100731.78;5090804;28;20055;-64
2023/07/08 02:09:24;;;;;;;8.20;4.00;;;;;;;25.10;45.84;100734.34;5090796;28;20055;-66
2023/07/08 02:11:53;;;;;;;7.38;3.55;;;;;;;25.07;46.13;100731.09;5091411;28;20052;-66
2023/07/08 02:14:22;;;;;;;7.18;4.00;;;;;;;25.07;46.08;100742.00;5094970;28;20050;-65
2023/07/08 02:16:50;;;;;;;7.85;3.88;;;;;;;25.06;46.15;100738.44;5094690;28;20043;-65
2023/07/08 02:19:21;;;;;;;7.10;3.67;;;;;;;25.03;46.25;100736.06;5094662;28;20048;-65
2023/07/08 02:21:51;;;;;;;7.63;4.25;;;;;;;25.03;46.29;100738.81;5094412;28;20554;-65
2023/07/08 02:24:22;;;;;;;7.60;4.00;;;;;;;25.02;46.25;100737.09;5094503;28;20051;-65
2023/07/08 02:26:51;;;;;;;6.88;4.00;;;;;;;24.99;46.66;100742.84;5094406;28;20075;-65
2023/07/08 02:29:20;;;;;;;6.70;3.63;;;;;;;24.98;46.68;100741.16;5094584;28;20416;-65
2023/07/08 02:31:48;;;;;;;7.75;3.90;;;;;;;24.97;46.73;100741.31;5094396;28;20051;-65
2023/07/08 02:34:17;;;;;;;5.60;3.38;;;;;;;24.96;46.72;100742.34;5094396;28;20047;-63
2023/07/08 02:36:46;;;;;;;8.10;3.90;;;;;;;24.95;46.74;100740.66;5094389;28;20075;-66
2023/07/08 02:39:17;;;;;;;6.90;3.88;;;;;;;24.92;46.65;100741.88;5093929;28;20515;-64
2023/07/08 02:41:45;;;;;;;6.68;3.83;;;;;;;24.91;46.93;100745.63;5094223;28;20071;-66
2023/07/08 02:44:18;;;;;;;6.38;3.60;;;;;;;24.90;46.85;100746.66;5094153;28;20095;-65
2023/07/08 02:46:46;;;;;;;7.07;3.60;;;;;;;24.88;47.06;100747.81;5094052;28;20044;-66
2023/07/08 02:49:14;;;;;;;5.82;3.58;;;;;;;24.87;46.95;100743.41;5093966;28;20043;-66
2023/07/08 02:51:42;;;;;;;5.45;3.45;;;;;;;24.84;47.03;100745.44;5093837;28;20127;-66
2023/07/08 02:54:11;;;;;;;7.38;3.72;;;;;;;24.81;47.07;100743.09;5094109;28;20080;-64
2023/07/08 02:56:39;;;;;;;6.85;3.88;;;;;;;24.80;47.19;100749.56;5094002;28;20124;-66
2023/07/08 02:59:08;;;;;;;6.22;3.72;;;;;;;24.77;47.19;100749.03;5093851;28;20048;-66
2023/07/08 03:01:41;;;;;;;6.43;3.72;;;;;;;24.77;47.15;100746.31;5093598;28;20040;-66
2023/07/08 03:04:12;;;;;;;5.30;3.70;;;;;;;24.76;47.07;100752.78;5093766;28;20540;-66
2023/07/08 03:06:41;;;;;;;9.63;4.00;;;;;;;24.74;47.01;100749.38;5093873;28;20048;-65
2023/07/08 03:09:10;;;;;;;5.85;3.65;;;;;;;24.73;46.93;100753.16;5093686;28;20048;-65
2023/07/08 03:11:39;;;;;;;5.72;3.70;;;;;;;24.70;47.01;100761.66;5093630;28;20056;-65
2023/07/08 03:14:08;;;;;;;6.57;3.35;;;;;;;24.68;47.23;100760.97;5093418;28;20101;-65
2023/07/08 03:16:38;;;;;;;8.32;3.90;;;;;;;24.66;46.97;100761.16;5093524;28;20054;-65
2023/07/08 03:19:07;;;;;;;6.85;3.60;;;;;;;24.64;46.95;100760.47;5093397;28;20440;-65
2023/07/08 03:21:35;;;;;;;6.45;3.80;;;;;;;24.62;47.01;100753.50;5093521;28;20040;-65
2023/07/08 03:24:03;;;;;;;5.90;3.38;;;;;;;24.63;47.10;100766.97;5092715;28;20084;-65
2023/07/08 03:26:32;;;;;;;8.25;3.60;;;;;;;24.59;46.87;100762.00;5093376;28;20094;-65
2023/07/08 03:29:00;;;;;;;7.50;4.10;;;;;;;24.59;47.08;100768.31;5093320;28;20084;-65
2023/07/08 03:31:29;;;;;;;5.88;3.80;;;;;;;24.59;46.75;100767.47;5093033;28;20036;-65
2023/07/08 03:33:59;;;;;;;6.90;3.83;;;;;;;24.59;46.60;100768.31;5093317;28;20048;-65
2023/07/08 03:36:27;;;;;;;6.38;3.80;;;;;;;24.58;46.72;100777.50;5093304;28;20119;-66
2023/07/08 03:38:57;;;;;;;8.00;3.67;;;;;;;24.53;46.74;100775.31;5093033;28;20484;-65
2023/07/08 03:41:25;;;;;;;5.90;3.90;;;;;;;24.55;46.41;100777.88;5093052;28;20082;-64
2023/07/08 03:43:53;;;;;;;6.82;3.53;;;;;;;24.53;46.45;100771.72;5092905;28;20044;-65
2023/07/08 03:46:23;;;;;;;8.18;3.80;;;;;;;24.53;46.71;100780.75;5092799;28;20046;-64
2023/07/08 03:48:52;;;;;;;7.25;3.67;;;;;;;24.53;46.71;100783.50;5092976;28;20112;-66
2023/07/08 03:51:25;;;;;;;7.93;3.90;;;;;;;24.52;46.85;100780.94;5093013;28;20506;-64
2023/07/08 03:53:54;;;;;;;5.80;3.42;;;;;;;24.49;46.80;100784.84;5093013;28;20080;-67
2023/07/08 03:56:23;;;;;;;7.32;3.63;;;;;;;24.46;47.10;100779.72;5093088;28;20047;-64
2023/07/08 03:58:51;;;;;;;6.35;3.65;;;;;;;24.46;47.05;100782.47;5092831;28;20075;-64
2023/07/08 04:01:23;;;;;;;5.63;3.55;;;;;;;24.46;46.85;100779.72;5092750;28;20461;-65
2023/07/08 04:03:52;;;;;;;6.70;3.75;;;;;;;24.43;46.74;100777.34;5092417;28;20139;-65
2023/07/08 04:06:23;;;;;;;6.07;3.80;;;;;;;24.41;46.82;100775.78;5092389;28;20083;-66
2023/07/08 04:08:51;;;;;;;6.95;3.72;;;;;;;24.39;46.96;100778.69;5092403;28;20125;-65
2023/07/08 04:11:22;;;;;;;6.60;3.75;;;;;;;24.35;46.71;100780.06;5092428;28;20477;-66
2023/07/08 04:13:51;;;;;;;6.30;3.60;;;;;;;24.34;46.89;100781.09;5092294;28;20485;-64
2023/07/08 04:16:23;;;;;;;6.53;3.42;;;;;;;24.33;47.21;100787.56;5092469;28;20044;-64
2023/07/08 04:18:53;;;;;;;7.10;3.75;;;;;;;24.32;46.92;100785.88;5092388;28;20051;-65
2023/07/08 04:21:24;;;;;;;7.35;3.67;;;;;;;24.33;46.98;100784.00;5074689;28;20080;-64
2023/07/08 04:23:54;;;;;;;7.15;3.55;;;;;;;24.32;47.35;100788.59;5092261;28;20048;-64
2023/07/08 04:26:22;;;;;;;7.72;4.20;;;;;;;24.32;47.31;100783.13;5092412;28;20040;-65
2023/07/08 04:28:51;;;;;;;6.70;3.92;;;;;;;24.29;47.53;100788.88;5091797;28;20429;-64
2023/07/08 04:31:19;;;;;;;6.78;3.60;;;;;;;24.30;47.27;100790.56;5092319;28;20044;-66
2023/07/08 04:33:48;;;;;;;5.20;3.40;;;;;;;24.31;47.39;100788.69;5092112;28;20052;-65
2023/07/08 04:36:16;;;;;;;6.70;3.47;;;;;;;24.31;47.71;100785.97;5091234;28;20052;-65
2023/07/08 04:38:47;;;;;;;6.72;3.75;;;;;;;24.32;47.22;100790.44;5091986;28;20048;-64
2023/07/08 04:41:15;;;;;;;7.65;3.95;;;;;;;24.30;47.40;100790.56;5091888;28;20452;-64
2023/07/08 04:43:44;;;;;;;6.55;3.70;;;;;;;24.28;47.63;100789.91;5091910;28;20109;-64
2023/07/08 04:46:20;;;;;;;7.10;3.63;;;;;;;24.26;47.56;100794.66;5091911;28;20052;-64
2023/07/08 04:48:48;;;;;;;6.18;3.60;;;;;;;24.25;47.57;100792.97;5092096;28;20131;-64
2023/07/08 04:51:19;;;;;;;6.38;3.50;;;;;;;24.25;47.49;100782.06;5091853;28;20058;-66
2023/07/08 04:53:48;;;;;;;7.95;3.85;;;;;;;24.26;47.39;100794.66;5092031;28;20044;-65
2023/07/08 04:56:17;;;;;;;9.77;3.63;;;;;;;24.26;47.59;100800.97;5091604;28;20438;-65
2023/07/08 04:58:45;;;;;;;6.82;3.60;;;;;;;24.26;47.55;100797.41;5091623;28;20052;-65
2023/07/08 05:01:14;;;;;;;7.43;3.95;;;;;;;24.28;47.56;100806.25;5091488;28;20090;-66
2023/07/08 05:03:42;;;;;;;7.25;3.80;;;;;;;24.27;47.45;100799.09;5091889;28;20143;-66
2023/07/08 05:06:11;;;;;;;6.80;3.35;;;;;;;24.28;47.54;100793.47;5091768;28;20051;-64
2023/07/08 05:08:39;;;;;;;5.45;3.35;;;;;;;24.30;47.44;100806.09;5091420;28;20659;-64
2023/07/08 05:11:09;;;;;;;6.57;3.53;;;;;;;24.28;47.56;100804.38;5091719;28;20467;-66
2023/07/08 05:13:37;;;;;;;10.35;3.92;;;;;;;24.28;47.78;100806.25;5091371;28;20097;-64
2023/07/08 05:16:06;;;;;;;6.35;3.83;;;;;;;24.28;47.63;100814.44;5091346;28;20526;-65
2023/07/08 05:18:34;;;;;;;9.63;3.67;;;;;;;24.28;47.45;100814.44;5091411;28;20052;-65
2023/07/08 05:21:03;;;;;;;6.55;3.70;;;;;;;24.30;47.69;100809.66;5091295;28;20553;-64
2023/07/08 05:23:31;;;;;;;9.43;3.80;;;;;;;24.32;47.58;100812.25;5091416;28;20102;-64
2023/07/08 05:26:01;;;;;;;7.85;3.97;;;;;;;24.32;47.67;100815.84;5091256;28;20111;-64
2023/07/08 05:28:31;;;;;;;4.88;3.38;;;;;;;24.32;47.60;100815.84;5091205;28;20047;-64
2023/07/08 05:30:59;;;;;;;5.43;3.40;;;;;;;24.35;47.47;100823.69;5091456;28;20451;-64
2023/07/08 05:33:30;;;;;;;7.30;3.72;;;;;;;24.37;47.52;100826.25;5091213;28;20044;-66
2023/07/08 05:36:00;;;;;;;5.50;3.20;;;;;;;24.39;47.29;100826.91;5091281;28;20139;-65
2023/07/08 05:38:28;;;;;;;6.40;3.15;;;;;;;24.38;47.00;100819.75;5091476;28;20044;-65
2023/07/08 05:40:59;;;;;;;5.60;3.10;;;;;;;24.38;46.84;100820.63;5090895;28;20135;-64
2023/07/08 05:43:28;;;;;;;5.22;3.47;;;;;;;24.38;46.57;100825.22;5091252;28;20090;-65
2023/07/08 05:46:02;;;;;;;6.30;3.40;;;;;;;24.41;46.80;100825.72;5091233;28;20093;-66
2023/07/08 05:48:39;;;;;;;;;;;;;;;24.38;46.36;100830.66;5095051;28;20052;-65
2023/07/08 05:51:08;;;;;;;6.32;3.58;;;;;;;24.37;46.33;100835.28;5095043;28;19920;-65
2023/07/08 05:53:36;;;;;;;7.18;3.53;;;;;;;24.37;46.28;100834.41;5095033;28;20048;-66
2023/07/08 05:56:05;;;;;;;5.75;3.40;;;;;;;24.39;46.37;100841.41;5095050;28;20076;-64
2023/07/08 05:58:34;;;;;;;5.53;3.30;;;;;;;24.41;46.40;100838.50;5095116;28;20048;-64
2023/07/08 06:01:03;;;;;;;6.80;3.40;;;;;;;24.41;46.21;100838.50;5094941;28;20113;-64
2023/07/08 06:03:35;;;;;;;5.53;3.38;;;;;;;24.42;46.13;100838.38;5095000;28;20052;-64
2023/07/08 06:06:05;;;;;;;7.45;3.80;;;;;;;24.41;45.73;100842.06;5094653;28;20062;-64
2023/07/08 06:08:36;;;;;;;6.43;3.63;;;;;;;24.37;45.43;100840.72;5094879;28;20079;-65
2023/07/08 06:11:04;;;;;;;6.07;3.65;;;;;;;24.36;45.28;100838.16;5094826;28;20052;-64
2023/07/08 06:13:32;;;;;;;6.43;3.30;;;;;;;24.38;45.23;100844.31;5094830;28;20629;-66
2023/07/08 06:16:02;;;;;;;6.22;3.53;;;;;;;24.40;45.60;100842.25;5094713;28;20470;-66
2023/07/08 06:18:31;;;;;;;5.70;3.30;;;;;;;24.41;45.71;100836.63;5094583;28;20413;-66
2023/07/08 06:20:59;;;;;;;5.95;3.60;;;;;;;24.42;45.56;100838.38;5094713;28;20182;-66
2023/07/08 06:23:28;;;;;;;5.60;3.13;;;;;;;24.44;45.53;100844.50;5094589;28;20052;-66
2023/07/08 06:25:57;;;;;;;5.60;3.25;;;;;;;24.46;45.73;100847.03;5094441;28;20040;-66
2023/07/08 06:28:25;;;;;;;9.88;3.75;;;;;;;24.48;45.75;100847.72;5094380;28;20147;-64
2023/07/08 06:30:53;;;;;;;5.72;3.38;;;;;;;24.48;45.66;100843.13;5094401;28;20044;-66
2023/07/08 06:33:23;;;;;;;5.55;3.50;;;;;;;24.50;45.67;100841.06;5094508;28;20051;-64
2023/07/08 06:35:51;;;;;;;6.57;3.30;;;;;;;24.51;45.69;100831.91;5096963;28;20055;-65
2023/07/08 06:38:20;;;;;;;5.43;3.03;;;;;;;24.52;45.45;100833.59;5105050;28;20055;-65
2023/07/08 06:40:48;;;;;;;6.35;3.50;;;;;;;24.55;45.35;100826.94;5103300;28;20482;-64
2023/07/08 06:43:16;;;;;;;5.15;3.10;;;;;;;24.55;45.47;100833.25;5100546;28;20052;-65
2023/07/08 06:45:45;;;;;;;5.55;3.15;;;;;;;24.57;45.49;100834.97;5097766;28;20397;-66
2023/07/08 06:48:13;;;;;;;5.10;3.30;;;;;;;24.58;45.40;100837.50;5103191;28;20047;-64
2023/07/08 06:50:47;;;;;;;6.05;2.95;;;;;;;24.61;45.36;100836.31;5105026;28;20035;-66
2023/07/08 06:53:15;;;;;;;5.65;3.17;;;;;;;24.61;45.51;100830.84;5104784;28;20131;-66
2023/07/08 06:55:45;;;;;;;6.65;3.30;;;;;;;24.62;45.40;100829.88;5105292;28;20421;-65
2023/07/08 06:58:14;;;;;;;7.10;3.80;;;;;;;24.62;45.64;100821.69;5093480;28;20051;-65
2023/07/08 07:00:43;;;;;;;6.00;3.33;;;;;;;24.64;45.52;100820.47;5093339;28;20062;-65
2023/07/08 07:03:12;;;;;;;5.57;3.05;;;;;;;24.66;45.48;100820.31;5096686;28;20135;-65
2023/07/08 07:05:41;;;;;;;6.28;3.38;;;;;;;24.68;45.56;100815.53;5104723;28;20043;-65
2023/07/08 07:08:11;;;;;;;5.55;3.35;;;;;;;24.66;44.86;100823.88;5097700;28;20056;-63
2023/07/08 07:10:39;;;;;;;5.05;3.15;;;;;;;24.69;44.86;100818.06;5097667;28;20125;-64
2023/07/08 07:13:07;;;;;;;7.18;3.53;;;;;;;24.72;45.39;100819.63;5093578;28;20062;-64
2023/07/08 07:15:36;;;;;;;6.25;4.03;;;;;;;24.72;45.20;100817.75;5101633;28;20404;-63
2023/07/08 07:18:04;;;;;;;7.35;3.67;;;;;;;24.74;45.00;100820.31;5103177;28;20048;-63
2023/07/08 07:20:34;;;;;;;5.28;3.05;;;;;;;24.77;44.34;100817.22;5103380;28;20146;-64
2023/07/08 07:23:02;;;;;;;5.90;3.58;;;;;;;24.67;44.07;100792.00;5113777;28;20048;-64
2023/07/08 07:25:32;;;;;;;8.07;4.07;;;;;;;24.79;43.81;100809.72;5114159;28;20073;-64
2023/07/08 07:28:00;;;;;;;7.28;3.63;;;;;;;24.81;43.10;100804.97;5114006;28;20054;-64
2023/07/08 07:30:29;;;;;;;6.28;3.65;;;;;;;24.79;42.33;100807.00;5110253;28;20425;-63
2023/07/08 07:32:59;;;;;;;5.38;3.42;;;;;;;24.82;42.46;100809.41;5093326;28;20044;-62
2023/07/08 07:35:28;;;;;;;9.10;3.65;;;;;;;24.84;42.02;100810.09;5095953;28;20039;-62
2023/07/08 07:37:56;;;;;;;21.85;4.70;;;;;;;24.88;42.04;100824.22;5092930;28;20058;-62
2023/07/08 07:40:25;;;;;;;6.55;3.28;;;;;;;24.87;41.67;100809.72;5092911;28;20044;-62
2023/07/08 07:42:54;;;;;;;6.63;3.22;;;;;;;24.88;41.56;100811.44;5095057;28;20052;-61
2023/07/08 07:45:23;;;;;;;5.13;3.15;;;;;;;24.88;41.37;100811.44;5092934;28;20098;-62
2023/07/08 07:47:51;;;;;;;5.80;3.00;;;;;;;24.90;41.27;100808.53;5092901;28;20079;-63
2023/07/08 07:50:19;;;;;;;6.25;3.17;;;;;;;24.90;41.31;100809.41;5092637;28;20070;-61
2023/07/08 07:52:48;;;;;;;5.15;2.85;;;;;;;24.92;41.43;100812.81;5092753;28;20093;-61
2023/07/08 07:55:16;;;;;;;5.28;2.90;;;;;;;24.92;40.88;100818.25;5092930;28;20060;-62
2023/07/08 07:57:46;;;;;;;5.15;2.92;;;;;;;24.91;40.38;100808.38;5093272;28;20143;-61
2023/07/08 08:00:17;;;;;;;6.70;3.00;;;;;;;24.95;40.14;100809.72;5092596;28;20048;-61
2023/07/08 08:02:46;;;;;;;5.50;2.90;;;;;;;24.94;40.27;100797.09;5091133;28;20440;-60
2023/07/08 08:05:15;;;;;;;5.35;2.97;;;;;;;24.95;40.36;100806.16;5091698;28;20089;-63
2023/07/08 08:07:43;;;;;;;5.20;2.85;;;;;;;24.97;40.62;100799.47;5092170;28;20536;-60
2023/07/08 08:10:11;;;;;;;5.80;3.22;;;;;;;24.99;40.80;100786.50;5092250;28;20052;-61
2023/07/08 08:12:40;;;;;;;4.85;2.95;;;;;;;25.01;40.81;100787.22;5092194;28;20469;-60
2023/07/08 08:15:23;;;;;;;5.72;3.55;;;;;;;25.05;41.05;100791.31;5091853;28;20142;-62
2023/07/08 08:17:54;;;;;;;7.60;3.33;;;;;;;25.06;41.00;100794.91;5090025;28;20068;-63
2023/07/08 08:20:27;;;;;;;7.20;4.00;;;;;;;25.08;40.57;100790.97;5084512;28;20051;-61
2023/07/08 08:23:12;;;;;;;6.68;3.63;;;;;;;25.10;40.63;100778.03;5076628;28;20513;-63
2023/07/08 08:25:43;;;;;;;9.20;3.92;;;;;;;25.13;40.94;100787.72;5095891;28;20451;-63
2023/07/08 08:28:12;;;;;;;7.03;3.38;;;;;;;25.14;41.03;100785.84;5100462;28;20562;-64
2023/07/08 08:30:41;;;;;;;6.88;3.80;;;;;;;25.16;40.66;100786.53;5100459;28;20134;-66
2023/07/08 08:33:10;;;;;;;7.68;3.47;;;;;;;25.17;41.11;100789.06;5098376;28;20051;-61
2023/07/08 08:35:38;;;;;;;4.72;2.97;;;;;;;25.19;40.85;100784.31;5098341;28;20050;-67
2023/07/08 08:38:06;;;;;;;5.88;3.35;;;;;;;25.20;40.66;100785.16;5112035;28;20044;-66
2023/07/08 08:40:35;;;;;;;6.65;3.60;;;;;;;25.23;41.56;100787.53;5112189;28;20475;-62
2023/07/08 08:43:05;;;;;;;5.80;3.40;;;;;;;25.25;41.37;100777.28;5111917;28;20154;-68
2023/07/08 08:45:42;;;;;;;7.13;4.35;;;;;;;25.26;41.61;100781.72;5093318;28;20047;-67
2023/07/08 08:48:20;;;;;;;13.20;6.45;;;;;;;25.28;41.04;100775.06;5091752;28;20386;-62
2023/07/08 08:50:52;;;;;;;116.20;45.33;;;;;;;25.30;41.13;100785.81;5091274;28;20454;-67
2023/07/08 08:53:23;;;;;;;166.13;66.27;;;;;;;25.33;41.62;100780.00;5091443;28;20047;-64
2023/07/08 08:55:57;;;;;;;145.18;61.60;;;;;;;25.34;41.00;100774.38;5091224;28;20123;-65
2023/07/08 08:58:36;;;;;;;111.95;48.33;;;;;;;25.38;41.05;100772.13;5091358;28;20048;-65
2023/07/08 09:01:09;;;;;;;74.03;35.13;;;;;;;25.42;40.80;100780.84;5091580;28;20048;-61
2023/07/08 09:03:46;;;;;;;20.17;10.30;;;;;;;25.42;39.69;100765.28;5093950;28;20488;-60
2023/07/08 09:06:19;;;;;;;9.20;4.18;;;;;;;25.44;39.43;100767.84;5090937;28;20133;-65
2023/07/08 09:08:49;;;;;;;7.35;4.43;;;;;;;25.46;39.17;100768.50;5100355;28;20043;-63
2023/07/08 09:11:35;;;;;;;10.05;4.47;;;;;;;25.47;39.58;100764.75;5091564;28;20058;-66
2023/07/08 09:14:03;;;;;;;8.68;4.38;;;;;;;25.46;39.82;100757.59;5090764;28;20063;-64
2023/07/08 09:16:44;;;;;;;27.23;5.97;;;;;;;25.50;40.44;100761.69;5106961;28;20472;-65
2023/07/08 09:19:21;;;;;;;30.83;5.68;;;;;;;25.56;41.36;100760.97;5111585;28;20096;-70
2023/07/08 09:21:54;;;;;;;10.52;3.95;;;;;;;25.60;39.47;100760.44;5110573;28;20481;-65
2023/07/08 09:24:41;;;;;;;9.15;3.97;;;;;;;25.64;39.90;100759.06;5111329;28;20043;-66
2023/07/08 09:27:09;;;;;;;14.65;4.15;;;;;;;25.75;39.59;100763.28;5112200;28;20082;-64
2023/07/08 09:29:38;;;;;;;8.45;3.33;;;;;;;25.77;39.31;100761.25;5111678;28;20082;-67
2023/07/08 09:32:16;;;;;;;11.20;3.70;;;;;;;25.82;39.10;100767.03;5111536;28;21176;-66
2023/07/08 09:34:50;;;;;;;6.30;3.28;;;;;;;25.84;38.55;100764.09;5111598;28;20130;-65
2023/07/08 09:37:29;;;;;;;8.10;3.38;;;;;;;25.86;37.42;100767.50;5111143;28;20454;-65
2023/07/08 09:39:59;;;;;;;7.07;3.40;;;;;;;25.89;37.48;100767.16;5111303;28;20409;-65
2023/07/08 09:42:31;;;;;;;5.00;3.20;;;;;;;25.89;37.89;100772.63;5111391;28;20610;-64
2023/07/08 09:45:02;;;;;;;5.95;3.20;;;;;;;25.92;37.47;100766.81;5111123;28;20400;-67
2023/07/08 09:47:35;;;;;;;6.72;3.55;;;;;;;25.94;37.48;100765.59;5111242;28;20082;-66
2023/07/08 09:50:18;;;;;;;62.78;6.97;;;;;;;25.98;37.92;100765.25;5111170;28;20062;-64
2023/07/08 09:52:47;;;;;;;7.53;3.30;;;;;;;25.99;37.60;100762.31;5100159;28;20095;-65
2023/07/08 09:55:16;;;;;;;15.00;4.20;;;;;;;26.04;37.64;100761.78;5089553;28;20051;-64
2023/07/08 09:57:46;;;;;;;12.20;4.18;;;;;;;26.08;38.50;100761.25;5090579;28;20131;-65
2023/07/08 10:00:18;;;;;;;7.20;3.50;;;;;;;26.13;37.98;100761.53;5090831;28;20063;-65
2023/07/08 10:02:52;;;;;;;44.97;5.85;;;;;;;26.15;37.99;100762.22;5091189;28;20048;-69
2023/07/08 10:05:28;;;;;;;18.15;3.95;;;;;;;26.18;38.01;100756.41;5090859;28;20056;-67
2023/07/08 10:07:58;;;;;;;25.08;5.93;;;;;;;26.47;37.54;100752.97;5090766;28;20052;-70
2023/07/08 10:10:31;;;;;;;18.23;4.72;;;;;;;26.50;37.99;100749.00;5090770;28;20044;-66
2023/07/08 10:13:02;;;;;;;19.42;4.80;;;;;;;26.51;38.04;100742.50;5090689;28;20056;-66
2023/07/08 10:15:37;;;;;;;16.08;5.03;;;;;;;26.54;38.50;100744.88;5090417;28;20044;-67
2023/07/08 10:18:15;;;;;;;11.80;3.90;;;;;;;26.53;38.79;100740.41;5091125;28;20055;-67
2023/07/08 10:20:54;;;;;;;10.75;4.20;;;;;;;26.52;38.60;100736.81;5090747;28;20067;-65
2023/07/08 10:23:32;;;;;;;5.68;2.92;;;;;;;26.54;38.17;100742.13;5090503;28;20106;-65
2023/07/08 10:26:11;;;;;;;7.55;3.75;;;;;;;26.55;37.97;100735.63;5090601;28;20121;-65
2023/07/08 10:28:45;;;;;;;4.95;2.92;;;;;;;26.58;37.76;100729.78;5090609;28;20512;-65
2023/07/08 10:31:26;;;;;;;7.03;3.40;;;;;;;26.59;36.53;100734.22;5093970;28;20076;-65
2023/07/08 10:34:11;;;;;;;6.35;3.45;;;;;;;26.56;36.60;100723.66;5091192;28;20460;-65
2023/07/08 10:36:52;;;;;;;6.32;3.50;;;;;;;26.61;36.20;100745.81;5094247;28;20052;-65
2023/07/08 10:39:35;;;;;;;5.93;3.67;;;;;;;26.59;36.09;100736.94;5094209;28;20051;-67
2023/07/08 10:42:11;;;;;;;6.55;3.45;;;;;;;26.58;35.65;100740.72;5094272;28;20044;-66
2023/07/08 10:44:47;;;;;;;5.15;3.22;;;;;;;26.58;35.60;100728.94;5093752;28;20082;-63
2023/07/08 10:47:32;;;;;;;6.22;3.10;;;;;;;26.57;36.38;100733.56;5094183;28;20084;-66
2023/07/08 10:50:26;;;;;;;5.72;3.20;;;;;;;26.58;36.54;100728.94;5094118;28;20043;-66
2023/07/08 10:53:08;;;;;;;6.60;3.30;;;;;;;26.60;35.81;100721.38;5094113;28;20131;-65
2023/07/08 10:55:45;;;;;;;7.25;3.33;;;;;;;26.62;36.03;100725.63;5093939;28;20044;-65
2023/07/08 10:58:40;;;;;;;4.80;3.30;;;;;;;26.65;36.03;100719.81;5093777;28;20044;-65
2023/07/08 11:01:20;;;;;;;5.45;3.25;;;;;;;26.69;35.96;100721.13;5091693;28;20055;-65
2023/07/08 11:04:13;;;;;;;7.47;3.35;;;;;;;26.71;35.87;100710.84;5093531;28;20051;-65
2023/07/08 11:06:48;;;;;;;5.93;3.35;;;;;;;26.76;35.52;100713.03;5093810;28;20048;-66
2023/07/08 11:09:27;;;;;;;5.07;3.28;;;;;;;26.78;35.85;100705.47;5093202;28;20056;-66
2023/07/08 11:12:01;;;;;;;4.72;3.08;;;;;;;26.84;35.59;100717.56;5093580;28;20083;-66
2023/07/08 11:14:34;;;;;;;6.13;3.40;;;;;;;26.85;36.01;100706.44;5093446;28;20047;-67
2023/07/08 11:17:16;;;;;;;6.90;2.90;;;;;;;26.88;36.46;100703.31;5093653;28;20110;-65
2023/07/08 11:19:51;;;;;;;4.57;3.05;;;;;;;26.93;36.11;100711.84;5093211;28;20045;-66
2023/07/08 11:22:22;;;;;;;5.47;3.45;;;;;;;26.94;36.55;100708.06;5093432;28;20036;-66
2023/07/08 11:24:54;;;;;;;5.50;2.90;;;;;;;26.97;36.24;100704.09;5093214;28;20451;-65
2023/07/08 11:27:27;;;;;;;5.45;3.30;;;;;;;27.01;36.11;100708.13;5093565;28;20048;-64
2023/07/08 11:30:00;;;;;;;6.35;3.25;;;;;;;27.03;36.22;100700.63;5093040;28;20480;-66
2023/07/08 11:32:32;;;;;;;6.82;2.97;;;;;;;27.09;35.33;100700.72;5093256;28;20058;-66
2023/07/08 11:35:03;;;;;;;5.97;3.30;;;;;;;27.11;35.73;100697.78;5092919;28;20044;-66
2023/07/08 11:37:33;;;;;;;4.70;3.00;;;;;;;27.19;35.43;100697.69;5094029;28;20077;-66
2023/07/08 11:40:09;;;;;;;6.25;3.28;;;;;;;27.24;35.04;100692.50;5093958;28;20043;-66
2023/07/08 11:42:42;;;;;;;4.60;3.22;;;;;;;27.26;35.20;100679.47;5093125;28;20072;-66